sensor_id;sensor_type;location;lat;lon;timestamp;P1;P2;P0
43479;PMS5003;29067;35.492;-97.520;2022-09-04T00:01:32;4;4;
43479;PMS5003;29067;35.492;-97.520;2022-09-04T00:04:10;4;4;
43479;PMS5003;29067;35.492;-97.520;2022-09-04T00:06:48;4;4;
43479;PMS5003;29067;35.492;-97.520;2022-09-04T00:09:24;4;3;
43479;PMS5003;29067;35.492;-97.520;2022-09-04T00:11:59;4;4;
43479;PMS5003;29067;35.492;-97.520;2022-09-04T00:14:34;3;3;
43479;PMS5003;29067;35.492;-97.520;2022-09-04T00:17:09;5;5;
43479;PMS5003;29067;35.492;-97.520;2022-09-04T00:19:42;5;5;
43479;PMS5003;29067;35.492;-97.520;2022-09-04T00:22:19;5;5;
43479;PMS5003;29067;35.492;-97.520;2022-09-04T00:24:57;2;2;
43479;PMS5003;29067;35.492;-97.520;2022-09-04T00:27:33;5;5;
43479;PMS5003;29067;35.492;-97.520;2022-09-04T00:30:05;5;5;
43479;PMS5003;29067;35.492;-97.520;2022-09-04T00:32:37;4;4;
43479;PMS5003;29067;35.492;-97.520;2022-09-04T00:35:10;5;5;
43479;PMS5003;29067;35.492;-97.520;2022-09-04T00:37:43;4;4;
43479;PMS5003;29067;35.492;-97.520;2022-09-04T00:40:19;3;3;
43479;PMS5003;29067;35.492;-97.520;2022-09-04T00:43:00;4;4;
43479;PMS5003;29067;35.492;-97.520;2022-09-04T00:45:55;4;4;
43479;PMS5003;29067;35.492;-97.520;2022-09-04T00:48:57;3;3;
43479;PMS5003;29067;35.492;-97.520;2022-09-04T00:51:44;4;4;
43479;PMS5003;29067;35.492;-97.520;2022-09-04T00:54:24;3;3;
43479;PMS5003;29067;35.492;-97.520;2022-09-04T00:57:07;4;3;
43479;PMS5003;29067;35.492;-97.520;2022-09-04T01:00:09;3;3;
43479;PMS5003;29067;35.492;-97.520;2022-09-04T01:02:43;4;4;
43479;PMS5003;29067;35.492;-97.520;2022-09-04T01:05:33;5;4;
43479;PMS5003;29067;35.492;-97.520;2022-09-04T01:08:14;4;4;
43479;PMS5003;29067;35.492;-97.520;2022-09-04T01:10:50;5;5;
43479;PMS5003;29067;35.492;-97.520;2022-09-04T01:13:30;6;6;
43479;PMS5003;29067;35.492;-97.520;2022-09-04T01:16:05;4;4;
43479;PMS5003;29067;35.492;-97.520;2022-09-04T01:18:39;4;4;
43479;PMS5003;29067;35.492;-97.520;2022-09-04T01:21:22;5;5;
43479;PMS5003;29067;35.492;-97.520;2022-09-04T01:24:11;4;4;
43479;PMS5003;29067;35.492;-97.520;2022-09-04T01:26:51;4;4;
43479;PMS5003;29067;35.492;-97.520;2022-09-04T01:29:25;4;4;
43479;PMS5003;29067;35.492;-97.520;2022-09-04T01:32:04;4;4;
43479;PMS5003;29067;35.492;-97.520;2022-09-04T01:34:41;5;4;
43479;PMS5003;29067;35.492;-97.520;2022-09-04T01:37:32;3;3;
43479;PMS5003;29067;35.492;-97.520;2022-09-04T01:40:16;3;3;
43479;PMS5003;29067;35.492;-97.520;2022-09-04T01:42:53;5;5;
43479;PMS5003;29067;35.492;-97.520;2022-09-04T01:45:31;5;5;
43479;PMS5003;29067;35.492;-97.520;2022-09-04T01:48:05;5;4;
43479;PMS5003;29067;35.492;-97.520;2022-09-04T01:50:34;3;3;
43479;PMS5003;29067;35.492;-97.520;2022-09-04T01:53:08;4;4;
43479;PMS5003;29067;35.492;-97.520;2022-09-04T01:55:42;5;5;
43479;PMS5003;29067;35.492;-97.520;2022-09-04T01:58:15;4;4;
43479;PMS5003;29067;35.492;-97.520;2022-09-04T02:00:52;4;4;
43479;PMS5003;29067;35.492;-97.520;2022-09-04T02:03:31;8;6;
43479;PMS5003;29067;35.492;-97.520;2022-09-04T02:06:07;7;7;
43479;PMS5003;29067;35.492;-97.520;2022-09-04T02:08:52;5;5;
43479;PMS5003;29067;35.492;-97.520;2022-09-04T02:11:30;7;7;
43479;PMS5003;29067;35.492;-97.520;2022-09-04T02:14:16;7;7;
43479;PMS5003;29067;35.492;-97.520;2022-09-04T02:16:54;6;6;
43479;PMS5003;29067;35.492;-97.520;2022-09-04T02:19:35;6;5;
43479;PMS5003;29067;35.492;-97.520;2022-09-04T02:22:14;6;6;
43479;PMS5003;29067;35.492;-97.520;2022-09-04T02:24:51;8;8;
43479;PMS5003;29067;35.492;-97.520;2022-09-04T02:27:29;8;7;
43479;PMS5003;29067;35.492;-97.520;2022-09-04T02:30:06;8;7;
43479;PMS5003;29067;35.492;-97.520;2022-09-04T02:32:37;7;7;
43479;PMS5003;29067;35.492;-97.520;2022-09-04T02:35:14;5;5;
43479;PMS5003;29067;35.492;-97.520;2022-09-04T02:37:52;6;6;
43479;PMS5003;29067;35.492;-97.520;2022-09-04T02:40:29;6;6;
43479;PMS5003;29067;35.492;-97.520;2022-09-04T02:43:07;7;6;
43479;PMS5003;29067;35.492;-97.520;2022-09-04T02:45:46;7;6;
43479;PMS5003;29067;35.492;-97.520;2022-09-04T02:48:26;7;6;
43479;PMS5003;29067;35.492;-97.520;2022-09-04T02:51:02;5;5;
43479;PMS5003;29067;35.492;-97.520;2022-09-04T02:53:48;5;5;
43479;PMS5003;29067;35.492;-97.520;2022-09-04T02:56:26;6;6;
43479;PMS5003;29067;35.492;-97.520;2022-09-04T02:59:14;6;6;
43479;PMS5003;29067;35.492;-97.520;2022-09-04T03:01:55;7;7;
43479;PMS5003;29067;35.492;-97.520;2022-09-04T03:04:28;7;7;
43479;PMS5003;29067;35.492;-97.520;2022-09-04T03:07:04;10;10;
43479;PMS5003;29067;35.492;-97.520;2022-09-04T03:09:39;12;12;
43479;PMS5003;29067;35.492;-97.520;2022-09-04T03:12:20;11;11;
43479;PMS5003;29067;35.492;-97.520;2022-09-04T03:14:58;10;10;
43479;PMS5003;29067;35.492;-97.520;2022-09-04T03:17:33;9;9;
43479;PMS5003;29067;35.492;-97.520;2022-09-04T03:20:08;13;12;
43479;PMS5003;29067;35.492;-97.520;2022-09-04T03:22:43;15;15;
43479;PMS5003;29067;35.492;-97.520;2022-09-04T03:25:30;22;21;
43479;PMS5003;29067;35.492;-97.520;2022-09-04T03:28:45;10;10;
43479;PMS5003;29067;35.492;-97.520;2022-09-04T03:31:25;14;14;
43479;PMS5003;29067;35.492;-97.520;2022-09-04T03:34:01;15;15;
43479;PMS5003;29067;35.492;-97.520;2022-09-04T03:36:40;13;13;
43479;PMS5003;29067;35.492;-97.520;2022-09-04T03:39:18;11;11;
43479;PMS5003;29067;35.492;-97.520;2022-09-04T03:41:55;10;10;
43479;PMS5003;29067;35.492;-97.520;2022-09-04T03:44:34;13;13;
43479;PMS5003;29067;35.492;-97.520;2022-09-04T03:47:14;15;15;
43479;PMS5003;29067;35.492;-97.520;2022-09-04T03:49:52;10;9;
43479;PMS5003;29067;35.492;-97.520;2022-09-04T03:52:33;7;7;
43479;PMS5003;29067;35.492;-97.520;2022-09-04T03:55:15;11;10;
43479;PMS5003;29067;35.492;-97.520;2022-09-04T03:57:32;11;10;
43479;PMS5003;29067;35.492;-97.520;2022-09-04T04:00:13;7;7;
43479;PMS5003;29067;35.492;-97.520;2022-09-04T04:02:51;6;6;
43479;PMS5003;29067;35.492;-97.520;2022-09-04T04:05:41;9;9;
43479;PMS5003;29067;35.492;-97.520;2022-09-04T04:08:23;9;9;
43479;PMS5003;29067;35.492;-97.520;2022-09-04T04:11:07;10;10;
43479;PMS5003;29067;35.492;-97.520;2022-09-04T04:13:54;11;10;
43479;PMS5003;29067;35.492;-97.520;2022-09-04T04:16:37;9;9;
43479;PMS5003;29067;35.492;-97.520;2022-09-04T04:19:18;7;7;
43479;PMS5003;29067;35.492;-97.520;2022-09-04T04:21:59;4;4;
43479;PMS5003;29067;35.492;-97.520;2022-09-04T04:24:44;5;5;
43479;PMS5003;29067;35.492;-97.520;2022-09-04T04:27:30;7;7;
43479;PMS5003;29067;35.492;-97.520;2022-09-04T04:30:12;5;5;
43479;PMS5003;29067;35.492;-97.520;2022-09-04T04:32:52;6;6;
43479;PMS5003;29067;35.492;-97.520;2022-09-04T04:35:34;6;6;
43479;PMS5003;29067;35.492;-97.520;2022-09-04T04:38:21;6;6;
43479;PMS5003;29067;35.492;-97.520;2022-09-04T04:41:04;5;5;
43479;PMS5003;29067;35.492;-97.520;2022-09-04T04:43:49;4;4;
43479;PMS5003;29067;35.492;-97.520;2022-09-04T04:46:28;4;4;
43479;PMS5003;29067;35.492;-97.520;2022-09-04T04:49:14;7;6;
43479;PMS5003;29067;35.492;-97.520;2022-09-04T04:51:58;7;7;
43479;PMS5003;29067;35.492;-97.520;2022-09-04T04:54:44;5;5;
43479;PMS5003;29067;35.492;-97.520;2022-09-04T04:57:42;5;5;
43479;PMS5003;29067;35.492;-97.520;2022-09-04T05:00:19;5;5;
43479;PMS5003;29067;35.492;-97.520;2022-09-04T05:02:57;7;5;
43479;PMS5003;29067;35.492;-97.520;2022-09-04T05:05:43;3;3;
43479;PMS5003;29067;35.492;-97.520;2022-09-04T05:08:21;6;5;
43479;PMS5003;29067;35.492;-97.520;2022-09-04T05:10:58;5;5;
43479;PMS5003;29067;35.492;-97.520;2022-09-04T05:13:33;5;5;
43479;PMS5003;29067;35.492;-97.520;2022-09-04T05:16:13;5;5;
43479;PMS5003;29067;35.492;-97.520;2022-09-04T05:18:50;4;4;
43479;PMS5003;29067;35.492;-97.520;2022-09-04T05:21:24;4;4;
43479;PMS5003;29067;35.492;-97.520;2022-09-04T05:24:03;4;4;
43479;PMS5003;29067;35.492;-97.520;2022-09-04T05:26:38;4;4;
43479;PMS5003;29067;35.492;-97.520;2022-09-04T05:29:16;4;4;
43479;PMS5003;29067;35.492;-97.520;2022-09-04T05:31:52;3;3;
43479;PMS5003;29067;35.492;-97.520;2022-09-04T05:34:27;6;6;
43479;PMS5003;29067;35.492;-97.520;2022-09-04T05:37:05;4;4;
43479;PMS5003;29067;35.492;-97.520;2022-09-04T05:39:41;4;4;
43479;PMS5003;29067;35.492;-97.520;2022-09-04T05:42:36;4;4;
43479;PMS5003;29067;35.492;-97.520;2022-09-04T05:45:10;4;3;
43479;PMS5003;29067;35.492;-97.520;2022-09-04T05:47:54;4;4;
43479;PMS5003;29067;35.492;-97.520;2022-09-04T05:50:37;4;4;
43479;PMS5003;29067;35.492;-97.520;2022-09-04T05:53:20;3;3;
43479;PMS5003;29067;35.492;-97.520;2022-09-04T05:56:08;4;4;
43479;PMS5003;29067;35.492;-97.520;2022-09-04T05:59:58;4;4;
43479;PMS5003;29067;35.492;-97.520;2022-09-04T06:02:40;4;4;
43479;PMS5003;29067;35.492;-97.520;2022-09-04T06:05:26;4;4;
43479;PMS5003;29067;35.492;-97.520;2022-09-04T06:08:07;4;4;
43479;PMS5003;29067;35.492;-97.520;2022-09-04T06:10:49;5;5;
43479;PMS5003;29067;35.492;-97.520;2022-09-04T06:13:33;5;4;
43479;PMS5003;29067;35.492;-97.520;2022-09-04T06:16:15;5;5;
43479;PMS5003;29067;35.492;-97.520;2022-09-04T06:18:58;5;5;
43479;PMS5003;29067;35.492;-97.520;2022-09-04T06:21:46;4;4;
43479;PMS5003;29067;35.492;-97.520;2022-09-04T06:24:34;5;5;
43479;PMS5003;29067;35.492;-97.520;2022-09-04T06:27:22;5;4;
43479;PMS5003;29067;35.492;-97.520;2022-09-04T06:30:04;4;4;
43479;PMS5003;29067;35.492;-97.520;2022-09-04T06:32:38;4;4;
43479;PMS5003;29067;35.492;-97.520;2022-09-04T06:35:30;4;4;
43479;PMS5003;29067;35.492;-97.520;2022-09-04T06:38:09;4;4;
43479;PMS5003;29067;35.492;-97.520;2022-09-04T06:40:49;5;5;
43479;PMS5003;29067;35.492;-97.520;2022-09-04T06:43:31;6;4;
43479;PMS5003;29067;35.492;-97.520;2022-09-04T06:46:11;4;4;
43479;PMS5003;29067;35.492;-97.520;2022-09-04T06:48:53;4;4;
43479;PMS5003;29067;35.492;-97.520;2022-09-04T06:51:36;5;5;
43479;PMS5003;29067;35.492;-97.520;2022-09-04T06:54:16;4;4;
43479;PMS5003;29067;35.492;-97.520;2022-09-04T06:56:58;4;4;
43479;PMS5003;29067;35.492;-97.520;2022-09-04T06:59:41;3;3;
43479;PMS5003;29067;35.492;-97.520;2022-09-04T07:02:26;4;4;
43479;PMS5003;29067;35.492;-97.520;2022-09-04T07:05:08;5;5;
43479;PMS5003;29067;35.492;-97.520;2022-09-04T07:07:48;5;5;
43479;PMS5003;29067;35.492;-97.520;2022-09-04T07:10:24;5;5;
43479;PMS5003;29067;35.492;-97.520;2022-09-04T07:13:03;4;4;
43479;PMS5003;29067;35.492;-97.520;2022-09-04T07:15:48;5;5;
43479;PMS5003;29067;35.492;-97.520;2022-09-04T07:18:47;4;4;
43479;PMS5003;29067;35.492;-97.520;2022-09-04T07:22:22;4;4;
43479;PMS5003;29067;35.492;-97.520;2022-09-04T07:25:15;6;6;
43479;PMS5003;29067;35.492;-97.520;2022-09-04T07:27:52;4;4;
43479;PMS5003;29067;35.492;-97.520;2022-09-04T07:30:37;4;4;
43479;PMS5003;29067;35.492;-97.520;2022-09-04T07:33:13;4;4;
43479;PMS5003;29067;35.492;-97.520;2022-09-04T07:35:50;4;4;
43479;PMS5003;29067;35.492;-97.520;2022-09-04T07:38:28;6;5;
43479;PMS5003;29067;35.492;-97.520;2022-09-04T07:41:06;6;6;
43479;PMS5003;29067;35.492;-97.520;2022-09-04T07:43:43;5;4;
43479;PMS5003;29067;35.492;-97.520;2022-09-04T07:46:19;5;5;
43479;PMS5003;29067;35.492;-97.520;2022-09-04T07:48:55;5;5;
43479;PMS5003;29067;35.492;-97.520;2022-09-04T07:51:32;6;5;
43479;PMS5003;29067;35.492;-97.520;2022-09-04T07:54:10;6;6;
43479;PMS5003;29067;35.492;-97.520;2022-09-04T07:57:27;5;4;
43479;PMS5003;29067;35.492;-97.520;2022-09-04T08:00:12;4;4;
43479;PMS5003;29067;35.492;-97.520;2022-09-04T08:02:47;4;4;
43479;PMS5003;29067;35.492;-97.520;2022-09-04T08:05:26;5;5;
43479;PMS5003;29067;35.492;-97.520;2022-09-04T08:08:04;5;4;
43479;PMS5003;29067;35.492;-97.520;2022-09-04T08:10:48;6;6;
43479;PMS5003;29067;35.492;-97.520;2022-09-04T08:13:33;6;6;
43479;PMS5003;29067;35.492;-97.520;2022-09-04T08:16:13;32;32;
43479;PMS5003;29067;35.492;-97.520;2022-09-04T08:18:56;39;39;
43479;PMS5003;29067;35.492;-97.520;2022-09-04T08:21:32;38;38;
43479;PMS5003;29067;35.492;-97.520;2022-09-04T08:24:14;39;38;
43479;PMS5003;29067;35.492;-97.520;2022-09-04T08:27:15;20;18;
43479;PMS5003;29067;35.492;-97.520;2022-09-04T08:29:56;43;40;
43479;PMS5003;29067;35.492;-97.520;2022-09-04T08:32:35;87;86;
43479;PMS5003;29067;35.492;-97.520;2022-09-04T08:35:21;109;107;
43479;PMS5003;29067;35.492;-97.520;2022-09-04T08:37:57;85;85;
43479;PMS5003;29067;35.492;-97.520;2022-09-04T08:40:49;13;10;
43479;PMS5003;29067;35.492;-97.520;2022-09-04T08:43:58;44;44;
43479;PMS5003;29067;35.492;-97.520;2022-09-04T08:47:22;37;37;
43479;PMS5003;29067;35.492;-97.520;2022-09-04T08:50:21;30;30;
43479;PMS5003;29067;35.492;-97.520;2022-09-04T08:53:21;34;33;
43479;PMS5003;29067;35.492;-97.520;2022-09-04T08:56:15;56;56;
43479;PMS5003;29067;35.492;-97.520;2022-09-04T08:58:53;35;35;
43479;PMS5003;29067;35.492;-97.520;2022-09-04T09:02:38;52;52;
43479;PMS5003;29067;35.492;-97.520;2022-09-04T09:05:44;64;64;
43479;PMS5003;29067;35.492;-97.520;2022-09-04T09:08:10;64;64;
43479;PMS5003;29067;35.492;-97.520;2022-09-04T09:10:53;45;45;
43479;PMS5003;29067;35.492;-97.520;2022-09-04T09:13:50;29;29;
43479;PMS5003;29067;35.492;-97.520;2022-09-04T09:16:57;26;26;
43479;PMS5003;29067;35.492;-97.520;2022-09-04T09:19:42;13;9;
43479;PMS5003;29067;35.492;-97.520;2022-09-04T09:22:20;31;31;
43479;PMS5003;29067;35.492;-97.520;2022-09-04T09:25:17;13;13;
43479;PMS5003;29067;35.492;-97.520;2022-09-04T09:28:07;8;8;
43479;PMS5003;29067;35.492;-97.520;2022-09-04T09:32:12;7;7;
43479;PMS5003;29067;35.492;-97.520;2022-09-04T09:34:37;7;7;
43479;PMS5003;29067;35.492;-97.520;2022-09-04T09:37:57;8;8;
43479;PMS5003;29067;35.492;-97.520;2022-09-04T09:41:00;11;10;
43479;PMS5003;29067;35.492;-97.520;2022-09-04T09:43:57;9;9;
43479;PMS5003;29067;35.492;-97.520;2022-09-04T09:46:47;9;9;
43479;PMS5003;29067;35.492;-97.520;2022-09-04T09:49:42;9;9;
43479;PMS5003;29067;35.492;-97.520;2022-09-04T09:52:38;9;9;
43479;PMS5003;29067;35.492;-97.520;2022-09-04T09:56:46;8;8;
43479;PMS5003;29067;35.492;-97.520;2022-09-04T09:59:37;7;7;
43479;PMS5003;29067;35.492;-97.520;2022-09-04T10:02:45;8;8;
43479;PMS5003;29067;35.492;-97.520;2022-09-04T10:05:54;8;7;
43479;PMS5003;29067;35.492;-97.520;2022-09-04T10:08:37;7;7;
43479;PMS5003;29067;35.492;-97.520;2022-09-04T10:11:40;8;8;
43479;PMS5003;29067;35.492;-97.520;2022-09-04T10:14:42;8;7;
43479;PMS5003;29067;35.492;-97.520;2022-09-04T10:17:42;7;7;
43479;PMS5003;29067;35.492;-97.520;2022-09-04T10:22:39;9;9;
43479;PMS5003;29067;35.492;-97.520;2022-09-04T10:26:47;7;7;
43479;PMS5003;29067;35.492;-97.520;2022-09-04T10:30:14;8;8;
43479;PMS5003;29067;35.492;-97.520;2022-09-04T10:32:55;8;7;
43479;PMS5003;29067;35.492;-97.520;2022-09-04T10:35:33;9;8;
43479;PMS5003;29067;35.492;-97.520;2022-09-04T10:38:15;8;8;
43479;PMS5003;29067;35.492;-97.520;2022-09-04T10:41:00;12;12;
43479;PMS5003;29067;35.492;-97.520;2022-09-04T10:44:52;10;9;
43479;PMS5003;29067;35.492;-97.520;2022-09-04T10:47:43;9;8;
43479;PMS5003;29067;35.492;-97.520;2022-09-04T10:51:20;9;8;
43479;PMS5003;29067;35.492;-97.520;2022-09-04T10:54:15;9;8;
43479;PMS5003;29067;35.492;-97.520;2022-09-04T10:58:02;10;10;
43479;PMS5003;29067;35.492;-97.520;2022-09-04T11:03:08;12;10;
43479;PMS5003;29067;35.492;-97.520;2022-09-04T11:05:51;9;9;
43479;PMS5003;29067;35.492;-97.520;2022-09-04T11:08:55;10;10;
43479;PMS5003;29067;35.492;-97.520;2022-09-04T11:12:09;10;10;
43479;PMS5003;29067;35.492;-97.520;2022-09-04T11:14:58;8;8;
43479;PMS5003;29067;35.492;-97.520;2022-09-04T11:17:40;8;7;
43479;PMS5003;29067;35.492;-97.520;2022-09-04T11:20:45;9;8;
43479;PMS5003;29067;35.492;-97.520;2022-09-04T11:25:03;8;8;
43479;PMS5003;29067;35.492;-97.520;2022-09-04T11:29:04;9;9;
43479;PMS5003;29067;35.492;-97.520;2022-09-04T11:31:55;10;9;
43479;PMS5003;29067;35.492;-97.520;2022-09-04T11:34:48;7;6;
43479;PMS5003;29067;35.492;-97.520;2022-09-04T11:37:58;7;7;
43479;PMS5003;29067;35.492;-97.520;2022-09-04T11:40:46;9;8;
43479;PMS5003;29067;35.492;-97.520;2022-09-04T11:44:09;5;5;
43479;PMS5003;29067;35.492;-97.520;2022-09-04T11:46:59;7;7;
43479;PMS5003;29067;35.492;-97.520;2022-09-04T11:49:20;7;7;
43479;PMS5003;29067;35.492;-97.520;2022-09-04T11:52:10;7;6;
43479;PMS5003;29067;35.492;-97.520;2022-09-04T11:54:52;8;8;
43479;PMS5003;29067;35.492;-97.520;2022-09-04T11:57:34;8;7;
43479;PMS5003;29067;35.492;-97.520;2022-09-04T12:00:16;8;7;
43479;PMS5003;29067;35.492;-97.520;2022-09-04T12:02:51;6;6;
43479;PMS5003;29067;35.492;-97.520;2022-09-04T12:06:08;6;6;
43479;PMS5003;29067;35.492;-97.520;2022-09-04T12:08:52;7;7;
43479;PMS5003;29067;35.492;-97.520;2022-09-04T12:12:12;9;7;
43479;PMS5003;29067;35.492;-97.520;2022-09-04T12:15:11;6;6;
43479;PMS5003;29067;35.492;-97.520;2022-09-04T12:18:18;7;7;
43479;PMS5003;29067;35.492;-97.520;2022-09-04T12:21:08;8;7;
43479;PMS5003;29067;35.492;-97.520;2022-09-04T12:24:10;7;6;
43479;PMS5003;29067;35.492;-97.520;2022-09-04T12:27:20;6;6;
43479;PMS5003;29067;35.492;-97.520;2022-09-04T12:30:05;8;7;
43479;PMS5003;29067;35.492;-97.520;2022-09-04T12:33:15;6;6;
43479;PMS5003;29067;35.492;-97.520;2022-09-04T12:36:05;6;6;
43479;PMS5003;29067;35.492;-97.520;2022-09-04T12:39:00;8;7;
43479;PMS5003;29067;35.492;-97.520;2022-09-04T12:41:45;7;6;
43479;PMS5003;29067;35.492;-97.520;2022-09-04T12:44:24;9;7;
43479;PMS5003;29067;35.492;-97.520;2022-09-04T12:47:07;8;8;
43479;PMS5003;29067;35.492;-97.520;2022-09-04T12:49:51;7;7;
43479;PMS5003;29067;35.492;-97.520;2022-09-04T12:52:33;10;10;
43479;PMS5003;29067;35.492;-97.520;2022-09-04T12:55:15;6;6;
43479;PMS5003;29067;35.492;-97.520;2022-09-04T12:57:52;7;7;
43479;PMS5003;29067;35.492;-97.520;2022-09-04T13:00:31;8;7;
43479;PMS5003;29067;35.492;-97.520;2022-09-04T13:03:08;6;6;
43479;PMS5003;29067;35.492;-97.520;2022-09-04T13:05:48;10;9;
43479;PMS5003;29067;35.492;-97.520;2022-09-04T13:08:29;7;7;
43479;PMS5003;29067;35.492;-97.520;2022-09-04T13:11:12;7;7;
43479;PMS5003;29067;35.492;-97.520;2022-09-04T13:13:50;7;7;
43479;PMS5003;29067;35.492;-97.520;2022-09-04T13:16:26;9;9;
43479;PMS5003;29067;35.492;-97.520;2022-09-04T13:19:02;10;9;
43479;PMS5003;29067;35.492;-97.520;2022-09-04T13:21:45;10;8;
43479;PMS5003;29067;35.492;-97.520;2022-09-04T13:24:30;9;6;
43479;PMS5003;29067;35.492;-97.520;2022-09-04T13:27:14;7;7;
43479;PMS5003;29067;35.492;-97.520;2022-09-04T13:29:56;5;5;
43479;PMS5003;29067;35.492;-97.520;2022-09-04T13:32:34;8;8;
43479;PMS5003;29067;35.492;-97.520;2022-09-04T13:35:39;9;8;
43479;PMS5003;29067;35.492;-97.520;2022-09-04T13:38:25;7;7;
43479;PMS5003;29067;35.492;-97.520;2022-09-04T13:41:17;7;7;
43479;PMS5003;29067;35.492;-97.520;2022-09-04T13:44:04;8;6;
43479;PMS5003;29067;35.492;-97.520;2022-09-04T13:46:47;7;6;
43479;PMS5003;29067;35.492;-97.520;2022-09-04T13:49:22;6;6;
43479;PMS5003;29067;35.492;-97.520;2022-09-04T13:51:58;6;6;
43479;PMS5003;29067;35.492;-97.520;2022-09-04T13:54:31;7;6;
43479;PMS5003;29067;35.492;-97.520;2022-09-04T13:57:04;8;7;
43479;PMS5003;29067;35.492;-97.520;2022-09-04T13:59:39;5;4;
43479;PMS5003;29067;35.492;-97.520;2022-09-04T14:02:11;4;3;
43479;PMS5003;29067;35.492;-97.520;2022-09-04T14:04:40;5;4;
43479;PMS5003;29067;35.492;-97.520;2022-09-04T14:07:14;4;4;
43479;PMS5003;29067;35.492;-97.520;2022-09-04T14:09:47;5;4;
43479;PMS5003;29067;35.492;-97.520;2022-09-04T14:12:21;6;6;
43479;PMS5003;29067;35.492;-97.520;2022-09-04T14:15:13;6;5;
43479;PMS5003;29067;35.492;-97.520;2022-09-04T14:18:28;5;4;
43479;PMS5003;29067;35.492;-97.520;2022-09-04T14:21:09;4;4;
43479;PMS5003;29067;35.492;-97.520;2022-09-04T14:23:43;4;4;
43479;PMS5003;29067;35.492;-97.520;2022-09-04T14:26:22;5;5;
43479;PMS5003;29067;35.492;-97.520;2022-09-04T14:29:00;4;4;
43479;PMS5003;29067;35.492;-97.520;2022-09-04T14:31:39;5;5;
43479;PMS5003;29067;35.492;-97.520;2022-09-04T14:34:17;5;4;
43479;PMS5003;29067;35.492;-97.520;2022-09-04T14:36:53;3;3;
43479;PMS5003;29067;35.492;-97.520;2022-09-04T14:39:27;6;5;
43479;PMS5003;29067;35.492;-97.520;2022-09-04T14:42:13;3;3;
43479;PMS5003;29067;35.492;-97.520;2022-09-04T14:45:09;7;7;
43479;PMS5003;29067;35.492;-97.520;2022-09-04T14:47:44;6;5;
43479;PMS5003;29067;35.492;-97.520;2022-09-04T14:50:16;4;3;
43479;PMS5003;29067;35.492;-97.520;2022-09-04T14:52:46;4;4;
43479;PMS5003;29067;35.492;-97.520;2022-09-04T14:55:23;4;4;
43479;PMS5003;29067;35.492;-97.520;2022-09-04T14:57:53;5;4;
43479;PMS5003;29067;35.492;-97.520;2022-09-04T15:00:28;2;2;
43479;PMS5003;29067;35.492;-97.520;2022-09-04T15:03:04;4;4;
43479;PMS5003;29067;35.492;-97.520;2022-09-04T15:05:43;5;3;
43479;PMS5003;29067;35.492;-97.520;2022-09-04T15:08:24;5;5;
43479;PMS5003;29067;35.492;-97.520;2022-09-04T15:10:55;3;3;
43479;PMS5003;29067;35.492;-97.520;2022-09-04T15:13:35;4;4;
43479;PMS5003;29067;35.492;-97.520;2022-09-04T15:16:15;3;3;
43479;PMS5003;29067;35.492;-97.520;2022-09-04T15:18:50;3;3;
43479;PMS5003;29067;35.492;-97.520;2022-09-04T15:21:27;3;3;
43479;PMS5003;29067;35.492;-97.520;2022-09-04T15:24:02;6;4;
43479;PMS5003;29067;35.492;-97.520;2022-09-04T15:26:43;3;3;
43479;PMS5003;29067;35.492;-97.520;2022-09-04T15:29:19;3;3;
43479;PMS5003;29067;35.492;-97.520;2022-09-04T15:31:57;3;3;
43479;PMS5003;29067;35.492;-97.520;2022-09-04T15:34:26;5;4;
43479;PMS5003;29067;35.492;-97.520;2022-09-04T15:37:07;2;2;
43479;PMS5003;29067;35.492;-97.520;2022-09-04T15:39:43;4;4;
43479;PMS5003;29067;35.492;-97.520;2022-09-04T15:42:40;5;5;
43479;PMS5003;29067;35.492;-97.520;2022-09-04T15:45:20;5;4;
43479;PMS5003;29067;35.492;-97.520;2022-09-04T15:47:55;4;4;
43479;PMS5003;29067;35.492;-97.520;2022-09-04T15:50:35;2;2;
43479;PMS5003;29067;35.492;-97.520;2022-09-04T15:53:19;2;2;
43479;PMS5003;29067;35.492;-97.520;2022-09-04T15:56:00;1;1;
43479;PMS5003;29067;35.492;-97.520;2022-09-04T15:58:32;4;3;
43479;PMS5003;29067;35.492;-97.520;2022-09-04T16:01:08;3;3;
43479;PMS5003;29067;35.492;-97.520;2022-09-04T16:03:44;2;2;
43479;PMS5003;29067;35.492;-97.520;2022-09-04T16:06:22;9;9;
43479;PMS5003;29067;35.492;-97.520;2022-09-04T16:08:54;15;14;
43479;PMS5003;29067;35.492;-97.520;2022-09-04T16:11:27;17;17;
43479;PMS5003;29067;35.492;-97.520;2022-09-04T16:14:00;7;6;
43479;PMS5003;29067;35.492;-97.520;2022-09-04T16:16:33;8;8;
43479;PMS5003;29067;35.492;-97.520;2022-09-04T16:19:11;9;9;
43479;PMS5003;29067;35.492;-97.520;2022-09-04T16:21:48;7;5;
43479;PMS5003;29067;35.492;-97.520;2022-09-04T16:24:28;2;2;
43479;PMS5003;29067;35.492;-97.520;2022-09-04T16:26:59;2;2;
43479;PMS5003;29067;35.492;-97.520;2022-09-04T16:29:34;1;1;
43479;PMS5003;29067;35.492;-97.520;2022-09-04T16:32:07;2;2;
43479;PMS5003;29067;35.492;-97.520;2022-09-04T16:34:38;3;2;
43479;PMS5003;29067;35.492;-97.520;2022-09-04T16:37:15;2;2;
43479;PMS5003;29067;35.492;-97.520;2022-09-04T16:39:55;3;2;
43479;PMS5003;29067;35.492;-97.520;2022-09-04T16:42:29;4;2;
43479;PMS5003;29067;35.492;-97.520;2022-09-04T16:45:05;2;2;
43479;PMS5003;29067;35.492;-97.520;2022-09-04T16:47:42;2;2;
43479;PMS5003;29067;35.492;-97.520;2022-09-04T16:50:18;2;1;
43479;PMS5003;29067;35.492;-97.520;2022-09-04T16:52:55;2;2;
43479;PMS5003;29067;35.492;-97.520;2022-09-04T16:55:32;27;27;
43479;PMS5003;29067;35.492;-97.520;2022-09-04T16:58:12;6;6;
43479;PMS5003;29067;35.492;-97.520;2022-09-04T17:00:52;3;3;
43479;PMS5003;29067;35.492;-97.520;2022-09-04T17:03:26;2;2;
43479;PMS5003;29067;35.492;-97.520;2022-09-04T17:06:06;3;2;
43479;PMS5003;29067;35.492;-97.520;2022-09-04T17:08:46;2;2;
43479;PMS5003;29067;35.492;-97.520;2022-09-04T17:11:26;4;2;
43479;PMS5003;29067;35.492;-97.520;2022-09-04T17:14:03;2;2;
43479;PMS5003;29067;35.492;-97.520;2022-09-04T17:16:47;0;0;
43479;PMS5003;29067;35.492;-97.520;2022-09-04T17:19:18;3;3;
43479;PMS5003;29067;35.492;-97.520;2022-09-04T17:21:57;0;0;
43479;PMS5003;29067;35.492;-97.520;2022-09-04T17:24:39;2;2;
43479;PMS5003;29067;35.492;-97.520;2022-09-04T17:27:16;3;3;
43479;PMS5003;29067;35.492;-97.520;2022-09-04T17:29:50;3;2;
43479;PMS5003;29067;35.492;-97.520;2022-09-04T17:32:24;0;0;
43479;PMS5003;29067;35.492;-97.520;2022-09-04T17:34:57;0;0;
43479;PMS5003;29067;35.492;-97.520;2022-09-04T17:37:34;3;2;
43479;PMS5003;29067;35.492;-97.520;2022-09-04T17:40:10;2;2;
43479;PMS5003;29067;35.492;-97.520;2022-09-04T17:42:46;4;2;
43479;PMS5003;29067;35.492;-97.520;2022-09-04T17:45:22;3;2;
43479;PMS5003;29067;35.492;-97.520;2022-09-04T17:47:58;5;4;
43479;PMS5003;29067;35.492;-97.520;2022-09-04T17:50:31;2;2;
43479;PMS5003;29067;35.492;-97.520;2022-09-04T17:53:00;1;1;
43479;PMS5003;29067;35.492;-97.520;2022-09-04T17:55:29;3;3;
43479;PMS5003;29067;35.492;-97.520;2022-09-04T18:12:04;2;2;
43479;PMS5003;29067;35.492;-97.520;2022-09-04T18:14:41;1;1;
43479;PMS5003;29067;35.492;-97.520;2022-09-04T18:17:19;1;1;
43479;PMS5003;29067;35.492;-97.520;2022-09-04T18:19:55;3;2;
43479;PMS5003;29067;35.492;-97.520;2022-09-04T18:22:50;2;2;
43479;PMS5003;29067;35.492;-97.520;2022-09-04T18:25:26;3;2;